createdAt,value
2022-10-18T00:01:00.903Z,57.60
2022-10-18T00:03:28.779Z,57.50
2022-10-18T00:05:56.931Z,57.50
2022-10-18T00:08:25.101Z,57.50
2022-10-18T00:10:54.603Z,57.50
2022-10-18T00:13:22.603Z,57.50
2022-10-18T00:15:51.702Z,57.50
2022-10-18T00:18:20.007Z,57.50
2022-10-18T00:20:57.062Z,57.50
2022-10-18T00:23:24.905Z,57.50
2022-10-18T00:26:02.079Z,57.40
2022-10-18T00:28:30.001Z,57.60
2022-10-18T00:30:58.271Z,57.50
2022-10-18T00:33:26.119Z,57.50
2022-10-18T00:35:54.041Z,57.50
2022-10-18T00:38:21.861Z,57.50
2022-10-18T00:40:49.668Z,57.50
2022-10-18T00:43:19.699Z,57.50
2022-10-18T00:45:47.539Z,57.50
2022-10-18T00:48:16.772Z,57.50
2022-10-18T00:50:44.942Z,57.50
2022-10-18T00:53:17.221Z,57.50
2022-10-18T00:55:45.441Z,57.50
2022-10-18T00:58:15.991Z,57.50
2022-10-18T01:00:45.313Z,57.50
2022-10-18T01:03:13.171Z,57.50
2022-10-18T01:05:44.929Z,58.20
2022-10-18T01:08:34.590Z,57.50
2022-10-18T01:11:18.754Z,57.50
2022-10-18T01:13:57.827Z,57.50
2022-10-18T01:16:31.501Z,57.50
2022-10-18T01:19:02.719Z,57.50
2022-10-18T01:21:40.519Z,57.50
2022-10-18T01:24:41.868Z,57.50
2022-10-18T01:27:36.516Z,57.50
2022-10-18T01:30:31.451Z,57.50
2022-10-18T01:33:05.442Z,57.50
2022-10-18T01:35:37.269Z,57.50
2022-10-18T01:38:11.398Z,57.50
2022-10-18T01:40:41.309Z,57.50
2022-10-18T01:43:11.680Z,57.50
2022-10-18T01:45:42.381Z,57.50
2022-10-18T01:48:12.965Z,57.50
2022-10-18T01:50:41.065Z,57.50
2022-10-18T01:53:32.631Z,57.50
2022-10-18T01:56:36.356Z,57.50
2022-10-18T01:59:21.649Z,57.50
2022-10-18T02:02:00.887Z,57.50
2022-10-18T02:04:37.166Z,57.50
2022-10-18T02:07:12.510Z,57.50
2022-10-18T02:09:46.160Z,57.50
2022-10-18T02:12:16.251Z,57.50
2022-10-18T02:14:46.603Z,57.50
2022-10-18T02:17:17.278Z,57.60
2022-10-18T02:19:50.630Z,57.50
2022-10-18T02:22:19.109Z,57.50
2022-10-18T02:24:52.072Z,57.50
2022-10-18T02:27:20.080Z,57.50
2022-10-18T02:29:48.364Z,57.70
2022-10-18T02:32:25.877Z,57.50
2022-10-18T02:34:59.348Z,57.50
2022-10-18T02:37:31.748Z,57.40
2022-10-18T02:39:59.994Z,57.50
2022-10-18T02:42:35.122Z,57.50
2022-10-18T02:45:03.166Z,57.40
2022-10-18T02:47:32.523Z,57.50
2022-10-18T02:50:00.592Z,57.40
2022-10-18T02:52:28.430Z,57.40
2022-10-18T02:54:56.283Z,57.50
2022-10-18T02:57:24.139Z,57.50
2022-10-18T02:59:51.956Z,57.40
2022-10-18T03:02:19.792Z,57.40
2022-10-18T03:04:48.971Z,57.50
2022-10-18T03:07:16.830Z,57.40
2022-10-18T03:09:44.636Z,57.50
2022-10-18T03:12:12.483Z,57.40
2022-10-18T03:14:40.365Z,57.50
2022-10-18T03:17:08.233Z,57.60
2022-10-18T03:19:36.030Z,57.40
2022-10-18T03:22:05.242Z,57.50
2022-10-18T03:24:33.106Z,57.40
2022-10-18T03:27:00.977Z,58.10
2022-10-18T03:29:28.783Z,57.40
2022-10-18T03:31:56.590Z,57.40
2022-10-18T03:34:24.397Z,57.50
2022-10-18T03:36:52.276Z,57.50
2022-10-18T03:39:21.456Z,57.40
2022-10-18T03:41:49.411Z,57.50
2022-10-18T03:44:17.239Z,57.40
2022-10-18T03:46:45.091Z,57.50
2022-10-18T03:49:12.938Z,57.40
2022-10-18T03:51:40.768Z,57.40
2022-10-18T03:54:08.594Z,57.50
2022-10-18T03:56:37.784Z,57.40
2022-10-18T03:59:05.701Z,57.40
2022-10-18T04:01:33.623Z,57.50
2022-10-18T04:04:01.491Z,57.40
2022-10-18T04:06:29.360Z,57.40
2022-10-18T04:08:57.178Z,57.40
2022-10-18T04:11:24.988Z,57.40
2022-10-18T04:13:54.148Z,57.40
2022-10-18T04:16:21.995Z,57.50
2022-10-18T04:18:50.626Z,57.50
2022-10-18T04:21:18.611Z,57.50
2022-10-18T04:23:48.634Z,57.50
2022-10-18T04:26:16.876Z,57.50
2022-10-18T04:28:45.173Z,57.40
2022-10-18T04:31:14.354Z,57.50
2022-10-18T04:33:42.164Z,57.50
2022-10-18T04:36:10.191Z,57.40
2022-10-18T04:38:38.012Z,57.50
2022-10-18T04:41:06.043Z,57.50
2022-10-18T04:43:33.952Z,57.50
2022-10-18T04:46:01.951Z,57.50
2022-10-18T04:48:31.120Z,57.50
2022-10-18T04:50:58.943Z,57.50
2022-10-18T04:53:26.746Z,57.40
2022-10-18T04:55:54.643Z,57.50
2022-10-18T04:58:22.461Z,57.50
2022-10-18T05:00:50.542Z,57.50
2022-10-18T05:03:18.494Z,57.50
2022-10-18T05:06:01.312Z,57.50
2022-10-18T05:08:29.462Z,57.50
2022-10-18T05:10:57.433Z,57.50
2022-10-18T05:13:25.415Z,57.50
2022-10-18T05:15:53.480Z,57.50
2022-10-18T05:18:21.311Z,57.40
2022-10-18T05:20:50.487Z,57.50
2022-10-18T05:23:18.321Z,57.50
2022-10-18T05:25:46.180Z,57.50
2022-10-18T05:28:38.385Z,57.50
2022-10-18T05:31:03.034Z,57.50
2022-10-18T05:33:31.196Z,57.40
2022-10-18T05:36:00.673Z,57.50
2022-10-18T05:38:30.831Z,57.50
2022-10-18T05:40:58.856Z,57.50
2022-10-18T05:43:28.813Z,57.50
2022-10-18T05:45:56.986Z,57.50
2022-10-18T05:48:24.943Z,57.50
2022-10-18T05:50:52.757Z,57.50
2022-10-18T05:53:36.286Z,57.50
2022-10-18T05:56:05.431Z,57.50
2022-10-18T05:58:33.430Z,57.50
2022-10-18T06:01:01.766Z,57.50
2022-10-18T06:03:30.600Z,57.40
2022-10-18T06:06:01.173Z,57.40
2022-10-18T06:08:30.359Z,57.40
2022-10-18T06:10:58.366Z,57.50
2022-10-18T06:13:26.190Z,57.40
2022-10-18T06:15:57.328Z,57.40
2022-10-18T06:18:25.360Z,57.40
2022-10-18T06:20:58.533Z,57.40
2022-10-18T06:23:26.549Z,57.50
2022-10-18T06:25:59.281Z,57.40
2022-10-18T06:28:27.596Z,57.50
2022-10-18T06:30:55.494Z,57.40
2022-10-18T06:33:23.377Z,57.40
2022-10-18T06:35:58.730Z,57.40
2022-10-18T06:38:26.885Z,57.40
2022-10-18T06:40:56.626Z,57.40
2022-10-18T06:43:25.042Z,57.40
2022-10-18T06:45:53.614Z,57.50
2022-10-18T06:48:22.327Z,57.40
2022-10-18T06:50:55.305Z,57.50
2022-10-18T06:53:23.184Z,57.40
2022-10-18T06:55:51.025Z,57.40
2022-10-18T06:58:20.272Z,57.50
2022-10-18T07:00:48.094Z,57.50
2022-10-18T07:03:15.939Z,57.50
2022-10-18T07:05:44.045Z,57.40
2022-10-18T07:08:11.890Z,57.40
2022-10-18T07:10:39.775Z,57.40
2022-10-18T07:13:30.921Z,57.50
2022-10-18T07:16:06.965Z,57.50
2022-10-18T07:18:35.806Z,57.50
2022-10-18T07:21:04.318Z,57.50
2022-10-18T07:23:33.909Z,57.50
2022-10-18T07:26:02.923Z,57.50
2022-10-18T07:28:31.060Z,57.50
2022-10-18T07:31:03.591Z,57.50
2022-10-18T07:33:35.198Z,57.50
2022-10-18T07:36:03.416Z,57.50
2022-10-18T07:38:31.252Z,57.50
2022-10-18T07:40:59.425Z,57.50
2022-10-18T07:43:28.133Z,57.50
2022-10-18T07:45:56.920Z,57.50
2022-10-18T07:48:24.969Z,57.50
2022-10-18T07:50:54.574Z,57.50
2022-10-18T07:53:22.422Z,57.50
2022-10-18T07:55:50.326Z,57.50
2022-10-18T07:58:18.420Z,57.50
2022-10-18T08:00:46.198Z,57.50
2022-10-18T08:03:14.055Z,57.50
2022-10-18T08:05:41.897Z,57.50
2022-10-18T08:08:11.223Z,57.50
2022-10-18T08:10:39.060Z,57.50
2022-10-18T08:13:06.893Z,57.50
2022-10-18T08:15:34.980Z,57.60
2022-10-18T08:18:02.893Z,57.50
2022-10-18T08:20:31.929Z,57.50
2022-10-18T08:23:00.732Z,57.50
2022-10-18T08:25:30.292Z,57.50
2022-10-18T08:27:58.240Z,57.50
2022-10-18T08:30:26.120Z,57.50
2022-10-18T08:32:54.300Z,57.50
2022-10-18T08:35:22.138Z,57.60
2022-10-18T08:37:50.154Z,57.50
2022-10-18T08:40:18.312Z,57.50
2022-10-18T08:43:00.027Z,57.50
2022-10-18T08:45:42.056Z,57.50
2022-10-18T08:48:21.770Z,57.50
2022-10-18T08:50:50.780Z,57.50
2022-10-18T08:53:23.985Z,57.60
2022-10-18T08:55:56.442Z,57.60
2022-10-18T08:58:27.628Z,57.60
2022-10-18T09:01:07.593Z,57.50
2022-10-18T09:03:52.718Z,57.60
2022-10-18T09:06:24.780Z,57.60
2022-10-18T09:09:04.393Z,57.60
2022-10-18T09:11:48.236Z,57.60
2022-10-18T09:14:48.114Z,57.60
2022-10-18T09:17:26.454Z,57.60
2022-10-18T09:20:10.694Z,57.60
2022-10-18T09:22:49.007Z,57.60
2022-10-18T09:25:21.060Z,57.60
2022-10-18T09:27:57.549Z,57.60
2022-10-18T09:30:45.466Z,57.60
2022-10-18T09:33:27.061Z,57.60
2022-10-18T09:35:58.816Z,57.60
2022-10-18T09:38:31.197Z,57.60
2022-10-18T09:41:03.135Z,57.60
2022-10-18T09:43:43.294Z,57.60
2022-10-18T09:46:14.325Z,57.60
2022-10-18T09:48:47.682Z,57.60
2022-10-18T09:51:21.963Z,57.60
2022-10-18T09:54:06.737Z,57.60
2022-10-18T09:56:42.031Z,57.60
2022-10-18T09:59:33.354Z,57.60
2022-10-18T10:02:02.606Z,57.50
2022-10-18T10:04:30.705Z,57.60
2022-10-18T10:07:01.825Z,57.60
2022-10-18T10:09:31.407Z,57.60
2022-10-18T10:11:59.532Z,57.60
2022-10-18T10:14:30.347Z,57.60
2022-10-18T10:17:02.090Z,57.60
2022-10-18T10:19:34.355Z,57.60
2022-10-18T10:22:06.241Z,57.60
2022-10-18T10:24:49.812Z,57.60
2022-10-18T10:27:22.627Z,57.60
2022-10-18T10:30:05.760Z,57.60
2022-10-18T10:32:47.447Z,57.60
2022-10-18T10:35:41.287Z,57.70
2022-10-18T10:38:24.792Z,57.70
2022-10-18T10:40:52.896Z,57.70
2022-10-18T10:43:37.220Z,57.60
2022-10-18T10:46:10.406Z,57.70
2022-10-18T10:48:47.370Z,57.70
2022-10-18T10:51:19.151Z,57.70
2022-10-18T10:53:58.069Z,57.70
2022-10-18T10:56:28.107Z,57.70
2022-10-18T10:58:59.072Z,57.70
2022-10-18T11:01:33.177Z,57.70
2022-10-18T11:04:04.385Z,57.70
2022-10-18T11:06:45.751Z,57.70
2022-10-18T11:09:31.241Z,57.80
2022-10-18T11:12:15.980Z,57.80
2022-10-18T11:14:47.866Z,57.80
2022-10-18T11:17:33.571Z,57.80
2022-10-18T11:20:20.267Z,57.80
2022-10-18T11:22:59.771Z,57.80
2022-10-18T11:25:36.993Z,57.80
2022-10-18T11:28:12.238Z,57.80
2022-10-18T11:30:53.418Z,57.80
2022-10-18T11:33:56.352Z,57.80
2022-10-18T11:36:25.280Z,57.80
2022-10-18T11:38:58.447Z,57.80
2022-10-18T11:41:32.605Z,57.80
2022-10-18T11:44:03.537Z,57.80
2022-10-18T11:46:46.171Z,57.80
2022-10-18T11:49:31.817Z,57.80
2022-10-18T11:52:09.462Z,57.80
2022-10-18T11:54:51.543Z,57.80
2022-10-18T11:57:36.484Z,57.90
2022-10-18T12:00:16.017Z,57.80
2022-10-18T12:03:01.973Z,57.80
2022-10-18T12:05:31.921Z,57.80
2022-10-18T12:08:06.367Z,57.80
2022-10-18T12:10:52.849Z,57.80
2022-10-18T12:13:30.741Z,57.80
2022-10-18T12:15:58.965Z,57.80
2022-10-18T12:18:27.626Z,57.80
2022-10-18T12:20:57.820Z,57.80
2022-10-18T12:23:37.551Z,57.80
2022-10-18T12:26:09.117Z,57.80
2022-10-18T12:28:50.546Z,57.80
2022-10-18T12:31:24.453Z,57.80
2022-10-18T12:33:56.541Z,57.80
2022-10-18T12:36:40.868Z,57.80
2022-10-18T12:39:33.307Z,57.80
2022-10-18T12:42:21.566Z,57.70
2022-10-18T12:44:50.154Z,57.80
2022-10-18T12:47:24.788Z,57.80
2022-10-18T12:50:00.658Z,57.80
2022-10-18T12:52:30.648Z,57.80
2022-10-18T12:55:05.662Z,57.80
2022-10-18T12:58:04.784Z,57.80
2022-10-18T13:00:55.887Z,57.80
2022-10-18T13:03:50.832Z,57.80
2022-10-18T13:06:18.688Z,57.80
2022-10-18T13:08:48.189Z,57.80
2022-10-18T13:11:30.346Z,57.80
2022-10-18T13:14:31.841Z,57.80
2022-10-18T13:17:07.045Z,57.80
2022-10-18T13:19:58.072Z,57.80
2022-10-18T13:22:53.467Z,57.80
2022-10-18T13:25:26.125Z,57.80
2022-10-18T13:27:59.301Z,57.90
2022-10-18T13:30:41.934Z,57.90
2022-10-18T13:33:32.133Z,57.80
2022-10-18T13:36:01.549Z,58.50
2022-10-18T13:38:47.807Z,57.80
2022-10-18T13:41:18.670Z,57.80
2022-10-18T13:44:01.146Z,57.80
2022-10-18T13:47:02.417Z,57.80
2022-10-18T13:49:39.329Z,57.90
2022-10-18T13:52:17.614Z,57.90
2022-10-18T13:55:04.756Z,57.90
2022-10-18T13:57:47.913Z,57.90
2022-10-18T14:00:28.533Z,57.90
2022-10-18T14:03:37.968Z,57.90
2022-10-18T14:06:14.898Z,58.00
2022-10-18T14:08:48.928Z,57.90
2022-10-18T14:11:25.344Z,58.00
2022-10-18T14:13:57.270Z,57.90
2022-10-18T14:16:33.039Z,58.60
2022-10-18T14:19:09.973Z,57.90
2022-10-18T14:21:44.124Z,57.90
2022-10-18T14:24:20.032Z,57.90
2022-10-18T14:26:48.387Z,57.90
2022-10-18T14:29:20.743Z,57.90
2022-10-18T14:31:54.800Z,57.90
2022-10-18T14:34:23.277Z,57.90
2022-10-18T14:36:53.093Z,57.90
2022-10-18T14:39:23.176Z,57.90
2022-10-18T14:41:52.600Z,57.90
2022-10-18T14:44:25.461Z,57.90
2022-10-18T14:46:59.403Z,57.90
2022-10-18T14:49:27.293Z,57.90
2022-10-18T14:51:59.233Z,57.90
2022-10-18T14:54:32.081Z,57.90
2022-10-18T14:57:01.297Z,57.90
2022-10-18T14:59:31.533Z,57.90
2022-10-18T15:02:02.119Z,57.90
2022-10-18T15:04:33.081Z,57.90
2022-10-18T15:07:04.553Z,57.90
2022-10-18T15:09:35.024Z,57.80
2022-10-18T15:12:04.082Z,57.90
2022-10-18T15:14:32.457Z,57.90
2022-10-18T15:17:03.870Z,57.80
2022-10-18T15:19:34.341Z,57.90
2022-10-18T15:25:14.506Z,57.80
2022-10-18T15:27:45.664Z,57.90
2022-10-18T15:30:20.598Z,57.80
2022-10-18T15:32:50.666Z,57.90
2022-10-18T15:35:25.933Z,57.80
2022-10-18T15:37:56.840Z,57.80
2022-10-18T15:40:38.561Z,57.90
2022-10-18T15:43:22.801Z,57.90
2022-10-18T15:45:52.728Z,57.90
2022-10-18T15:48:26.132Z,57.80
2022-10-18T15:50:55.728Z,58.50
2022-10-18T15:53:43.832Z,57.80
2022-10-18T15:56:28.005Z,57.80
2022-10-18T15:58:57.838Z,57.90
2022-10-18T16:01:33.289Z,57.80
2022-10-18T16:04:05.374Z,57.90
2022-10-18T16:06:35.264Z,57.80
2022-10-18T16:09:04.664Z,57.90
2022-10-18T16:11:32.531Z,57.80
2022-10-18T16:14:00.779Z,57.80
2022-10-18T16:16:30.125Z,57.80
2022-10-18T16:18:58.844Z,57.80
2022-10-18T16:21:28.541Z,57.80
2022-10-18T16:23:56.871Z,57.80
2022-10-18T16:26:27.085Z,57.80
2022-10-18T16:28:56.106Z,57.80
2022-10-18T16:31:25.391Z,57.80
2022-10-18T16:33:54.409Z,57.80
2022-10-18T16:36:24.088Z,57.80
2022-10-18T16:38:52.466Z,57.80
2022-10-18T16:41:20.310Z,57.80
2022-10-18T16:43:50.305Z,57.80
2022-10-18T16:46:21.049Z,57.80
2022-10-18T16:48:50.210Z,57.80
2022-10-18T16:51:18.270Z,57.90
2022-10-18T16:53:46.116Z,57.90
2022-10-18T16:56:16.470Z,57.90
2022-10-18T16:58:45.150Z,57.90
2022-10-18T17:01:16.350Z,57.80
2022-10-18T17:03:45.007Z,57.90
2022-10-18T17:06:16.825Z,57.90
2022-10-18T17:08:45.380Z,57.90
2022-10-18T17:11:15.596Z,57.90
2022-10-18T17:13:43.983Z,57.90
2022-10-18T17:16:24.675Z,57.90
2022-10-18T17:18:52.656Z,58.50
2022-10-18T17:21:20.545Z,57.90
2022-10-18T17:23:48.636Z,57.90
2022-10-18T17:26:28.482Z,57.90
2022-10-18T17:28:59.409Z,57.90
2022-10-18T17:31:28.961Z,57.90
2022-10-18T17:33:58.346Z,57.90
2022-10-18T17:36:26.796Z,57.90
2022-10-18T17:38:55.363Z,57.90
2022-10-18T17:41:23.317Z,57.90
2022-10-18T17:43:51.145Z,57.90
2022-10-18T17:46:19.509Z,57.90
2022-10-18T17:48:48.801Z,57.90
2022-10-18T17:51:18.046Z,57.80
2022-10-18T17:53:45.971Z,57.80
2022-10-18T17:56:14.976Z,57.90
2022-10-18T17:58:44.144Z,57.80
2022-10-18T18:01:14.767Z,57.80
2022-10-18T18:03:43.119Z,57.90
2022-10-18T18:06:20.154Z,57.80
2022-10-18T18:08:49.213Z,57.80
2022-10-18T18:11:18.431Z,57.80
2022-10-18T18:13:46.263Z,57.80
2022-10-18T18:16:15.686Z,57.80
2022-10-18T18:18:43.819Z,57.80
2022-10-18T18:21:11.855Z,57.80
2022-10-18T18:23:41.468Z,57.80
2022-10-18T18:26:09.847Z,57.90
2022-10-18T18:28:38.173Z,57.80
2022-10-18T18:31:07.825Z,57.90
2022-10-18T18:33:35.847Z,57.80
2022-10-18T18:36:05.138Z,57.80
2022-10-18T18:38:34.910Z,57.80
2022-10-18T18:41:08.928Z,57.80
2022-10-18T18:43:37.546Z,57.90
2022-10-18T18:46:05.485Z,57.80
2022-10-18T18:48:34.942Z,57.80
2022-10-18T18:51:03.431Z,57.80
2022-10-18T18:53:31.725Z,57.80
2022-10-18T18:56:04.313Z,57.80
2022-10-18T18:58:34.992Z,57.80
2022-10-18T19:01:07.993Z,57.80
2022-10-18T19:03:36.262Z,57.80
2022-10-18T19:06:06.429Z,57.80
2022-10-18T19:08:36.354Z,57.80
2022-10-18T19:11:08.150Z,57.80
2022-10-18T19:13:38.530Z,57.80
2022-10-18T19:16:19.882Z,57.80
2022-10-18T19:18:56.543Z,57.80
2022-10-18T19:21:26.331Z,57.80
2022-10-18T19:23:55.976Z,57.80
2022-10-18T19:26:32.924Z,57.90
2022-10-18T19:29:08.980Z,57.80
2022-10-18T19:31:36.922Z,57.80
2022-10-18T19:34:05.906Z,57.80
2022-10-18T19:36:34.554Z,57.80
2022-10-18T19:39:02.770Z,57.80
2022-10-18T19:41:30.656Z,57.80
2022-10-18T19:43:58.733Z,57.80
2022-10-18T19:46:27.957Z,57.80
2022-10-18T19:48:55.914Z,57.80
2022-10-18T19:51:27.753Z,57.80
2022-10-18T19:53:57.029Z,57.80
2022-10-18T19:56:26.207Z,57.80
2022-10-18T19:58:54.356Z,57.80
2022-10-18T20:01:22.503Z,57.80
2022-10-18T20:03:51.882Z,57.80
2022-10-18T20:06:19.862Z,57.80
2022-10-18T20:08:48.039Z,57.80
2022-10-18T20:11:18.275Z,57.80
2022-10-18T20:13:46.226Z,57.80
2022-10-18T20:16:16.443Z,57.80
2022-10-18T20:18:44.328Z,57.80
2022-10-18T20:21:15.796Z,57.80
2022-10-18T20:23:44.929Z,57.80
2022-10-18T20:26:18.246Z,57.90
2022-10-18T20:28:55.763Z,57.80
2022-10-18T20:31:25.492Z,57.80
2022-10-18T20:33:55.632Z,57.80
2022-10-18T20:36:25.282Z,57.80
2022-10-18T20:38:53.691Z,57.90
2022-10-18T20:41:23.564Z,57.90
2022-10-18T20:43:52.689Z,57.80
2022-10-18T20:46:20.940Z,57.90
2022-10-18T20:48:50.213Z,57.90
2022-10-18T20:51:18.472Z,57.80
2022-10-18T20:53:47.894Z,57.90
2022-10-18T20:56:16.928Z,57.90
2022-10-18T20:58:45.948Z,57.90
2022-10-18T21:01:16.391Z,57.90
2022-10-18T21:03:46.558Z,57.90
2022-10-18T21:06:16.751Z,57.90
2022-10-18T21:08:45.301Z,57.90
2022-10-18T21:11:16.032Z,57.90
2022-10-18T21:13:43.920Z,57.90
2022-10-18T21:16:11.767Z,57.90
2022-10-18T21:18:40.363Z,57.90
2022-10-18T21:21:10.664Z,57.90
2022-10-18T21:23:38.698Z,57.90
2022-10-18T21:26:07.239Z,57.90
2022-10-18T21:28:36.613Z,57.90
2022-10-18T21:31:15.802Z,57.90
2022-10-18T21:33:44.704Z,57.90
2022-10-18T21:36:13.232Z,57.90
2022-10-18T21:38:44.126Z,57.90
2022-10-18T21:41:13.607Z,57.90
2022-10-18T21:43:44.798Z,57.90
2022-10-18T21:46:13.606Z,57.90
2022-10-18T21:48:44.454Z,57.90
2022-10-18T21:51:13.474Z,57.90
2022-10-18T21:53:43.749Z,57.90
2022-10-18T21:56:13.889Z,57.90
2022-10-18T21:58:44.126Z,57.90
2022-10-18T22:01:13.866Z,57.90
2022-10-18T22:03:42.447Z,57.90
2022-10-18T22:06:14.037Z,57.90
2022-10-18T22:08:42.146Z,57.90
2022-10-18T22:11:10.327Z,57.90
2022-10-18T22:13:42.101Z,57.90
2022-10-18T22:16:15.192Z,57.90
2022-10-18T22:18:43.826Z,57.90
2022-10-18T22:21:13.817Z,57.90
2022-10-18T22:23:44.223Z,57.90
2022-10-18T22:26:14.826Z,58.00
2022-10-18T22:28:44.022Z,57.90
2022-10-18T22:31:17.672Z,57.90
2022-10-18T22:33:45.974Z,57.90
2022-10-18T22:36:14.075Z,57.90
2022-10-18T22:38:41.903Z,57.90
2022-10-18T22:41:12.255Z,57.90
2022-10-18T22:43:40.654Z,58.00
2022-10-18T22:46:10.786Z,57.90
2022-10-18T22:48:40.149Z,57.90
2022-10-18T22:51:08.127Z,57.90
2022-10-18T22:53:36.567Z,57.90
2022-10-18T22:56:05.736Z,57.90
2022-10-18T22:58:33.944Z,57.90
2022-10-18T23:01:03.225Z,57.90
2022-10-18T23:03:31.044Z,57.90
2022-10-18T23:06:00.882Z,57.90
2022-10-18T23:08:29.139Z,57.90
2022-10-18T23:10:58.749Z,57.90
2022-10-18T23:13:28.189Z,57.90
2022-10-18T23:16:04.467Z,57.90
2022-10-18T23:18:33.725Z,57.90
2022-10-18T23:21:04.069Z,57.90
2022-10-18T23:23:35.445Z,57.90
2022-10-18T23:26:04.852Z,57.90
2022-10-18T23:28:34.838Z,57.90
2022-10-18T23:31:10.502Z,57.90
2022-10-18T23:33:38.477Z,57.90
2022-10-18T23:36:09.225Z,57.90
2022-10-18T23:38:37.751Z,57.90
2022-10-18T23:41:06.078Z,57.90
2022-10-18T23:43:34.259Z,57.90
2022-10-18T23:46:02.336Z,57.90
2022-10-18T23:48:30.629Z,57.90
2022-10-18T23:50:58.558Z,57.90
2022-10-18T23:53:27.787Z,57.90
2022-10-18T23:55:56.600Z,57.90
2022-10-18T23:58:24.929Z,57.90
